Time;durP1;ratioP1;P1;durP2;ratioP2;P2;SDS_P1;SDS_P2;PMS_P1;PMS_P2;Temp;Humidity;BMP_temperature;BMP_pressure;BME280_temperature;BME280_humidity;BME280_pressure;Samples;Min_cycle;Max_cycle;Signal;HPM_P1;HPM_P2
2021/11/07 00:02:20;;;;;;;8.20;3.78;;;;;;;9.25;92.32;101509.13;5068492;28;20059;-78
2021/11/07 00:04:48;;;;;;;10.32;4.00;;;;;;;9.14;93.34;101508.25;5063807;28;20045;-78
2021/11/07 00:07:20;;;;;;;10.85;4.40;;;;;;;9.13;93.34;101497.03;5055509;28;20101;-78
2021/11/07 00:09:57;;;;;;;12.23;4.55;;;;;;;8.96;94.54;101499.63;5054397;28;20139;-78
2021/11/07 00:12:27;;;;;;;9.10;4.30;;;;;;;8.95;95.42;101495.28;5051820;28;20056;-78
2021/11/07 00:14:55;;;;;;;11.63;4.38;;;;;;;8.93;94.97;101494.47;5065271;28;20045;-77
2021/11/07 00:17:26;;;;;;;14.00;5.10;;;;;;;8.73;97.14;101481.47;5065496;28;20053;-77
2021/11/07 00:19:56;;;;;;;7.88;5.10;;;;;;;8.73;97.77;101485.81;5067244;28;20047;-77
2021/11/07 00:22:28;;;;;;;9.70;4.68;;;;;;;8.65;99.57;101489.22;5057986;28;20167;-77
2021/11/07 00:25:02;;;;;;;9.00;5.45;;;;;;;8.57;100.00;101480.59;5060879;28;20056;-78
2021/11/07 00:27:31;;;;;;;8.80;4.88;;;;;;;8.65;100.00;101476.25;5061680;28;20102;-77
2021/11/07 00:30:10;;;;;;;9.38;5.28;;;;;;;8.64;100.00;101484.91;5049843;28;20048;-77
2021/11/07 00:32:44;;;;;;;15.68;5.32;;;;;;;8.60;100.00;101480.59;5060363;28;20132;-77
2021/11/07 00:37:56;;;;;;;11.25;5.28;;;;;;;8.51;100.00;101476.25;5057822;28;20052;-77
2021/11/07 00:40:28;;;;;;;10.63;6.00;;;;;;;8.41;100.00;101471.88;5059962;28;20478;-78
2021/11/07 00:42:59;;;;;;;12.93;6.03;;;;;;;8.49;100.00;101457.22;5059874;28;20494;-78
2021/11/07 00:45:35;;;;;;;17.73;6.95;;;;;;;8.46;100.00;101457.22;5060713;28;20469;-78
2021/11/07 00:48:15;;;;;;;11.80;5.82;;;;;;;8.40;100.00;101460.66;5059666;28;20502;-78
2021/11/07 00:50:46;;;;;;;12.95;5.93;;;;;;;8.48;100.00;101455.53;5061311;28;20056;-78
2021/11/07 00:53:24;;;;;;;13.05;6.30;;;;;;;8.48;100.00;101458.13;5059246;28;20063;-77
2021/11/07 00:55:53;;;;;;;13.32;5.90;;;;;;;8.44;100.00;101450.28;5058948;28;20056;-77
2021/11/07 00:58:31;;;;;;;12.75;5.97;;;;;;;8.50;100.00;101429.59;5057037;28;20063;-77
2021/11/07 01:01:02;;;;;;;11.85;6.40;;;;;;;8.37;100.00;101424.34;5069572;22;20059;-74
2021/11/07 01:03:29;;;;;;;11.20;6.75;;;;;;;8.42;100.00;101423.50;5032992;28;20718;-72
2021/11/07 01:05:55;;;;;;;12.15;6.30;;;;;;;8.38;100.00;101413.13;5030027;28;20044;-71
2021/11/07 01:08:22;;;;;;;14.90;6.85;;;;;;;8.33;100.00;101420.06;5039110;28;20534;-72
2021/11/07 01:10:49;;;;;;;14.70;6.68;;;;;;;8.15;100.00;101420.88;5036324;28;20044;-72
2021/11/07 01:13:16;;;;;;;10.30;6.25;;;;;;;8.20;100.00;101421.75;5016696;28;20058;-73
2021/11/07 01:15:43;;;;;;;13.20;6.88;;;;;;;8.13;100.00;101425.19;5024657;28;20056;-72
2021/11/07 01:18:11;;;;;;;12.38;6.53;;;;;;;8.09;100.00;101423.44;5013827;28;20041;-70
2021/11/07 01:20:38;;;;;;;21.85;7.05;;;;;;;8.12;100.00;101409.66;5018063;28;20045;-72
2021/11/07 01:23:13;;;;;;;17.52;7.53;;;;;;;8.21;100.00;101414.84;5011760;28;20095;-72
2021/11/07 01:25:43;;;;;;;13.20;7.05;;;;;;;8.22;100.00;101421.75;5023676;28;20473;-73
2021/11/07 01:28:10;;;;;;;13.30;6.60;;;;;;;8.26;100.00;101405.34;5027676;28;20057;-71
2021/11/07 01:30:40;;;;;;;10.63;6.32;;;;;;;8.26;100.00;101407.94;5016135;28;20048;-72
2021/11/07 01:33:11;;;;;;;10.02;6.93;;;;;;;8.21;100.00;101420.03;5024326;28;20150;-72
2021/11/07 01:35:43;;;;;;;10.85;6.53;;;;;;;8.26;100.00;101407.94;5014514;28;20056;-72
2021/11/07 01:38:14;;;;;;;12.05;7.43;;;;;;;8.24;100.00;101414.81;5025186;28;20435;-72
2021/11/07 01:40:44;;;;;;;9.20;6.53;;;;;;;8.22;100.00;101406.22;5022026;28;20127;-72
2021/11/07 01:43:12;;;;;;;13.23;6.50;;;;;;;8.16;100.00;101407.06;5030905;28;20100;-73
2021/11/07 01:45:44;;;;;;;10.82;6.43;;;;;;;8.21;100.00;101401.88;5032767;28;20054;-73
2021/11/07 01:48:13;;;;;;;8.73;6.30;;;;;;;8.19;100.00;101398.44;5019718;28;20120;-73
2021/11/07 01:50:45;;;;;;;11.85;6.35;;;;;;;8.16;100.00;101401.00;5019799;28;20045;-73
2021/11/07 01:53:19;;;;;;;10.60;5.75;;;;;;;8.24;100.00;101397.56;5022891;28;20054;-73
2021/11/07 01:55:46;;;;;;;7.95;6.13;;;;;;;8.36;100.00;101390.66;5029459;28;20042;-73
2021/11/07 01:58:13;;;;;;;10.50;6.18;;;;;;;8.20;100.00;101393.22;5023746;28;20059;-73
2021/11/07 02:00:40;;;;;;;10.23;6.03;;;;;;;8.21;100.00;101375.97;5023377;28;20041;-72
2021/11/07 02:03:07;;;;;;;8.35;5.90;;;;;;;8.21;100.00;101378.56;5017440;28;20144;-73
2021/11/07 02:05:34;;;;;;;11.10;5.97;;;;;;;8.24;100.00;101378.53;5019756;28;20041;-73
2021/11/07 02:08:03;;;;;;;11.95;5.85;;;;;;;8.26;100.00;101379.41;5025598;28;20065;-73
2021/11/07 02:10:30;;;;;;;9.00;5.82;;;;;;;8.35;100.00;101363.88;5024883;28;20053;-71
2021/11/07 02:12:56;;;;;;;11.00;6.25;;;;;;;8.21;100.00;101357.84;5023886;28;20046;-73
2021/11/07 02:15:23;;;;;;;12.57;5.72;;;;;;;8.33;100.00;101357.84;5026547;28;20045;-72
2021/11/07 02:17:50;;;;;;;8.52;5.30;;;;;;;8.30;100.00;101357.84;5032662;28;20049;-72
2021/11/07 02:20:23;;;;;;;9.50;6.43;;;;;;;8.31;100.00;101350.91;5018924;28;20620;-72
2021/11/07 02:22:50;;;;;;;8.23;5.70;;;;;;;8.33;100.00;101346.59;5021096;28;20045;-72
2021/11/07 02:25:17;;;;;;;10.50;6.47;;;;;;;8.28;100.00;101338.81;5032986;28;20111;-72
2021/11/07 02:27:44;;;;;;;8.68;5.78;;;;;;;8.39;100.00;101331.03;5026504;28;20050;-73
2021/11/07 02:30:14;;;;;;;11.15;6.63;;;;;;;8.30;100.00;101338.81;5026357;28;20046;-72
2021/11/07 02:32:42;;;;;;;10.82;6.90;;;;;;;8.20;100.00;101330.19;5013980;28;20500;-72
2021/11/07 02:35:11;;;;;;;7.80;6.35;;;;;;;8.33;100.00;101311.19;5023509;28;20057;-72
2021/11/07 02:37:40;;;;;;;12.05;6.72;;;;;;;8.30;100.00;101316.38;5023456;28;20044;-73
2021/11/07 02:40:09;;;;;;;8.60;6.70;;;;;;;8.28;100.00;101314.66;5021703;28;20051;-73
2021/11/07 02:42:36;;;;;;;9.07;6.40;;;;;;;8.34;100.00;101299.06;5024168;28;20051;-73
2021/11/07 02:45:04;;;;;;;10.32;6.38;;;;;;;8.36;100.00;101298.19;5018883;28;20046;-73
2021/11/07 02:47:31;;;;;;;8.90;6.85;;;;;;;8.26;100.00;101299.06;5022382;28;20060;-73
2021/11/07 02:49:57;;;;;;;7.85;6.10;;;;;;;8.28;100.00;101294.75;5017579;28;20042;-74
2021/11/07 02:52:24;;;;;;;9.73;6.68;;;;;;;8.32;100.00;101288.72;5015844;28;21454;-73
2021/11/07 02:54:52;;;;;;;10.98;7.05;;;;;;;8.33;100.00;101286.97;5027157;28;20049;-73
2021/11/07 02:57:21;;;;;;;9.38;6.20;;;;;;;8.31;100.00;101268.84;5022371;28;20525;-73
2021/11/07 02:59:54;;;;;;;10.25;6.63;;;;;;;8.36;100.00;101279.22;5023629;28;20483;-73
2021/11/07 03:02:20;;;;;;;12.90;6.93;;;;;;;8.44;100.00;101272.28;5019910;28;20049;-72
2021/11/07 03:04:47;;;;;;;11.00;6.38;;;;;;;8.37;100.00;101274.00;5011910;28;20468;-74
2021/11/07 03:07:13;;;;;;;9.48;6.40;;;;;;;8.33;100.00;101271.44;5023569;28;20060;-73
2021/11/07 03:09:41;;;;;;;10.35;6.95;;;;;;;8.36;100.00;101274.03;5014343;28;20056;-73
2021/11/07 03:12:10;;;;;;;10.05;6.38;;;;;;;8.42;100.00;101267.97;5022419;28;20050;-73
2021/11/07 03:14:41;;;;;;;12.30;6.65;;;;;;;8.38;100.00;101255.00;5014968;28;20609;-72
2021/11/07 03:17:08;;;;;;;11.52;6.50;;;;;;;8.44;100.00;101255.84;5016974;28;20073;-73
2021/11/07 03:19:35;;;;;;;9.48;6.03;;;;;;;8.49;100.00;101252.41;5012651;28;20127;-73
2021/11/07 03:22:06;;;;;;;8.52;6.25;;;;;;;8.47;100.00;101253.25;5015161;28;20084;-73
2021/11/07 03:24:32;;;;;;;8.07;5.53;;;;;;;8.62;100.00;101261.03;5020383;28;20519;-73
2021/11/07 03:26:59;;;;;;;11.15;5.85;;;;;;;8.55;100.00;101251.53;5028136;28;20399;-73
2021/11/07 03:29:33;;;;;;;8.40;5.50;;;;;;;8.48;100.00;101242.94;5021532;28;20045;-73
2021/11/07 03:32:04;;;;;;;7.88;5.70;;;;;;;8.52;100.00;101239.44;5028987;28;20139;-73
2021/11/07 03:34:32;;;;;;;9.70;5.22;;;;;;;8.53;100.00;101235.16;5026000;28;20603;-71
2021/11/07 03:37:01;;;;;;;10.15;5.72;;;;;;;8.49;100.00;101243.78;5012719;28;20524;-73
2021/11/07 03:39:29;;;;;;;11.07;6.47;;;;;;;8.46;100.00;101233.38;5032333;28;20135;-72
2021/11/07 03:41:57;;;;;;;9.13;6.00;;;;;;;8.50;100.00;101228.22;5028067;28;20045;-73
2021/11/07 03:44:24;;;;;;;11.80;6.60;;;;;;;8.53;100.00;101233.41;5020112;28;20053;-73
2021/11/07 03:46:55;;;;;;;9.73;5.72;;;;;;;8.64;100.00;101230.75;5016422;28;20042;-72
2021/11/07 03:49:22;;;;;;;9.18;6.15;;;;;;;8.64;100.00;101235.09;5030077;28;20062;-72
2021/11/07 03:51:49;;;;;;;10.13;6.40;;;;;;;8.64;100.00;101229.91;5021038;28;20049;-73
2021/11/07 03:54:17;;;;;;;9.00;6.43;;;;;;;8.67;100.00;101227.31;5020384;28;20230;-74
2021/11/07 03:56:44;;;;;;;9.48;5.43;;;;;;;8.73;100.00;101226.44;5018611;28;20057;-73
2021/11/07 03:59:10;;;;;;;9.95;5.63;;;;;;;8.70;100.00;101228.16;5021772;28;20053;-73
2021/11/07 04:01:37;;;;;;;11.80;5.95;;;;;;;8.71;100.00;101235.09;5013324;28;20041;-72
2021/11/07 04:04:05;;;;;;;9.80;5.70;;;;;;;8.82;100.00;101222.06;5022124;28;20060;-73
2021/11/07 04:06:31;;;;;;;9.30;5.93;;;;;;;8.80;100.00;101220.34;5015236;28;20049;-73
2021/11/07 04:09:00;;;;;;;10.93;5.70;;;;;;;8.83;100.00;101215.16;5015607;28;20046;-73
2021/11/07 04:11:26;;;;;;;11.38;5.82;;;;;;;8.75;100.00;101225.56;5020227;28;20518;-73
2021/11/07 04:13:53;;;;;;;13.95;7.38;;;;;;;8.79;100.00;101203.06;5016792;28;20046;-73
2021/11/07 04:16:19;;;;;;;10.82;5.82;;;;;;;8.73;100.00;101210.88;5027517;28;20049;-73
2021/11/07 04:18:46;;;;;;;8.60;5.60;;;;;;;8.83;100.00;101202.19;5008260;28;20435;-73
2021/11/07 04:21:15;;;;;;;8.90;6.22;;;;;;;8.77;100.00;101197.88;5019587;28;20049;-73
2021/11/07 04:23:42;;;;;;;11.32;6.28;;;;;;;8.76;100.00;101185.78;5029381;28;20045;-73
2021/11/07 04:26:08;;;;;;;13.35;5.85;;;;;;;8.77;100.00;101181.44;5031674;28;20110;-73
2021/11/07 04:28:35;;;;;;;10.43;5.47;;;;;;;8.80;100.00;101168.47;5025826;28;20048;-74
2021/11/07 04:31:02;;;;;;;9.48;5.90;;;;;;;8.81;100.00;101160.66;5025161;28;20431;-69
2021/11/07 04:33:29;;;;;;;8.95;5.75;;;;;;;8.80;100.00;101166.72;5010125;28;20046;-73
2021/11/07 04:35:55;;;;;;;10.93;6.90;;;;;;;8.85;100.00;101171.88;5011436;28;20050;-72
2021/11/07 04:38:23;;;;;;;15.90;5.88;;;;;;;8.82;100.00;101152.03;5026555;28;20049;-74
2021/11/07 04:40:50;;;;;;;12.18;6.40;;;;;;;8.86;100.00;101158.94;5024207;28;20052;-72
2021/11/07 04:43:17;;;;;;;13.00;5.35;;;;;;;8.89;100.00;101157.16;5020334;28;20061;-73
2021/11/07 04:45:44;;;;;;;10.77;6.32;;;;;;;8.87;100.00;101152.00;5023536;28;20135;-73
2021/11/07 04:48:10;;;;;;;9.75;6.13;;;;;;;8.94;100.00;101151.09;5015208;28;20104;-72
2021/11/07 04:50:37;;;;;;;10.70;6.78;;;;;;;8.93;100.00;101156.28;5014464;28;20547;-74
2021/11/07 04:53:05;;;;;;;12.52;7.63;;;;;;;8.93;100.00;101158.88;5014626;28;20515;-73
2021/11/07 04:55:34;;;;;;;13.35;7.50;;;;;;;8.99;100.00;101157.13;5020257;28;20503;-73
2021/11/07 04:58:00;;;;;;;12.27;6.70;;;;;;;8.95;100.00;101150.22;5018676;28;20053;-74
2021/11/07 05:00:27;;;;;;;13.85;7.18;;;;;;;8.96;100.00;101154.53;5025880;28;20054;-74
2021/11/07 05:02:54;;;;;;;12.20;7.32;;;;;;;9.03;100.00;101155.38;5015445;28;20080;-73
2021/11/07 05:05:21;;;;;;;15.68;7.85;;;;;;;8.96;100.00;101145.91;5013992;28;20399;-74
2021/11/07 05:07:48;;;;;;;12.85;7.57;;;;;;;8.94;100.00;101158.88;5019137;28;20135;-74
2021/11/07 05:10:14;;;;;;;15.98;7.88;;;;;;;8.98;100.00;101162.34;5031962;28;20077;-74
2021/11/07 05:12:42;;;;;;;14.35;7.95;;;;;;;9.07;100.00;101159.69;5014372;28;20050;-73
2021/11/07 05:15:10;;;;;;;11.90;7.60;;;;;;;9.06;100.00;101163.16;5013234;28;20050;-73
2021/11/07 05:17:37;;;;;;;13.50;7.80;;;;;;;9.11;100.00;101156.19;5023065;28;20041;-73
2021/11/07 05:20:04;;;;;;;14.75;8.43;;;;;;;9.07;100.00;101158.81;5011967;28;20116;-71
2021/11/07 05:22:31;;;;;;;14.88;9.02;;;;;;;9.09;100.00;101162.25;5014656;28;20501;-73
2021/11/07 05:24:57;;;;;;;15.15;8.48;;;;;;;9.06;100.00;101141.50;5022244;28;20415;-74
2021/11/07 05:27:24;;;;;;;15.40;9.23;;;;;;;9.10;100.00;101135.44;5020051;28;20151;-73
2021/11/07 05:29:52;;;;;;;13.07;8.75;;;;;;;9.05;100.00;101139.78;5027585;28;20072;-72
2021/11/07 05:32:18;;;;;;;14.95;8.88;;;;;;;9.16;100.00;101143.16;5025999;28;20462;-73
2021/11/07 05:34:46;;;;;;;12.40;8.65;;;;;;;9.06;100.00;101134.59;5027327;28;20127;-73
2021/11/07 05:37:13;;;;;;;15.23;8.48;;;;;;;9.12;100.00;101121.56;5018848;28;20054;-74
2021/11/07 05:39:40;;;;;;;17.15;9.40;;;;;;;9.07;100.00;101141.50;5025245;28;20049;-73
2021/11/07 05:42:07;;;;;;;13.23;8.82;;;;;;;9.14;100.00;101131.94;5026186;28;20057;-73
2021/11/07 05:44:34;;;;;;;17.20;9.27;;;;;;;9.03;100.00;101121.63;5029169;28;20061;-72
2021/11/07 05:47:02;;;;;;;17.80;9.90;;;;;;;9.08;100.00;101142.38;5021057;28;20085;-74
2021/11/07 05:49:29;;;;;;;15.85;9.23;;;;;;;9.10;100.00;101144.06;5016043;28;20146;-74
2021/11/07 05:51:55;;;;;;;16.05;9.07;;;;;;;9.05;100.00;101139.78;5010913;28;20046;-74
2021/11/07 05:54:22;;;;;;;12.38;8.75;;;;;;;9.12;100.00;101137.13;5025637;28;20048;-74
2021/11/07 05:56:49;;;;;;;13.75;8.98;;;;;;;9.10;100.00;101141.47;5034852;28;20157;-73
2021/11/07 05:59:16;;;;;;;14.95;8.38;;;;;;;9.19;100.00;101143.16;5026792;28;20459;-74
2021/11/07 06:01:43;;;;;;;13.15;8.85;;;;;;;9.14;100.00;101152.69;5018288;28;20140;-74
2021/11/07 06:04:11;;;;;;;13.50;8.00;;;;;;;9.18;100.00;101151.81;5020504;28;20707;-74
2021/11/07 06:06:37;;;;;;;10.60;8.07;;;;;;;9.22;100.00;101166.50;5025566;28;20046;-74
2021/11/07 06:09:04;;;;;;;13.75;8.20;;;;;;;9.23;100.00;101178.63;5013557;28;20049;-74
2021/11/07 06:11:30;;;;;;;12.43;8.25;;;;;;;9.30;100.00;101180.28;5019946;28;20069;-74
2021/11/07 06:13:57;;;;;;;14.45;7.50;;;;;;;9.36;100.00;101174.19;5006979;28;20089;-74
2021/11/07 06:16:23;;;;;;;14.07;8.40;;;;;;;9.38;100.00;101189.75;5023326;28;20046;-74
2021/11/07 06:18:49;;;;;;;13.95;8.50;;;;;;;9.40;100.00;101188.00;5029166;28;20049;-74
2021/11/07 06:21:17;;;;;;;13.05;9.07;;;;;;;9.43;100.00;101194.03;5028155;28;20049;-73
2021/11/07 06:23:46;;;;;;;23.30;9.93;;;;;;;9.42;100.00;101196.66;5010648;28;20448;-74
2021/11/07 06:26:13;;;;;;;15.85;9.90;;;;;;;9.37;100.00;101204.47;5036132;28;20053;-74
2021/11/07 06:28:40;;;;;;;15.30;9.52;;;;;;;9.30;100.00;101195.88;5025146;28;20045;-73
2021/11/07 06:31:08;;;;;;;16.65;10.18;;;;;;;9.32;100.00;101196.72;5022908;28;20045;-73
2021/11/07 06:33:35;;;;;;;14.05;10.27;;;;;;;9.35;100.00;101185.44;5027575;28;20115;-73
2021/11/07 06:36:02;;;;;;;14.10;9.38;;;;;;;9.33;100.00;101177.66;5019968;28;20474;-74
2021/11/07 06:38:30;;;;;;;16.50;10.82;;;;;;;9.33;100.00;101182.00;5028858;28;20049;-74
2021/11/07 06:40:56;;;;;;;16.42;10.88;;;;;;;9.36;100.00;101178.50;5017139;28;20557;-74
2021/11/07 06:43:23;;;;;;;17.85;11.02;;;;;;;9.33;100.00;101193.22;5041443;28;20064;-74
2021/11/07 06:45:49;;;;;;;15.82;9.95;;;;;;;9.24;100.00;101185.50;5034895;28;20045;-74
2021/11/07 06:48:16;;;;;;;15.57;9.98;;;;;;;9.22;100.00;101182.09;5025487;28;20070;-73
2021/11/07 06:50:43;;;;;;;15.85;9.52;;;;;;;9.32;100.00;101186.34;5025603;28;20068;-72
2021/11/07 06:53:10;;;;;;;13.27;9.80;;;;;;;9.31;100.00;101183.72;5028181;28;20050;-74
2021/11/07 06:55:38;;;;;;;12.35;9.10;;;;;;;9.31;100.00;101191.53;5028782;28;20042;-74
2021/11/07 06:58:05;;;;;;;16.67;8.68;;;;;;;9.34;100.00;101183.72;5015675;28;22670;-74
2021/11/07 07:00:31;;;;;;;12.40;8.30;;;;;;;9.31;100.00;101182.00;5015965;28;20448;-74
2021/11/07 07:02:58;;;;;;;14.95;8.02;;;;;;;9.37;100.00;101180.22;5015228;28;20046;-74
2021/11/07 07:05:25;;;;;;;11.93;8.75;;;;;;;9.36;100.00;101183.69;5016962;28;20133;-73
2021/11/07 07:07:55;;;;;;;12.23;7.65;;;;;;;9.36;100.00;101196.69;5013790;28;20057;-73
2021/11/07 07:10:25;;;;;;;13.55;8.30;;;;;;;9.36;100.00;101189.78;5017795;28;20054;-73
2021/11/07 07:12:58;;;;;;;15.20;8.90;;;;;;;9.34;100.00;101188.91;5026689;28;20045;-74
2021/11/07 07:15:28;;;;;;;16.02;9.18;;;;;;;9.41;100.00;101184.53;5014299;28;20053;-73
2021/11/07 07:18:03;;;;;;;16.40;9.60;;;;;;;9.49;100.00;101185.34;5014127;28;20495;-73
2021/11/07 07:28:55;;;;;;;21.48;11.88;;;;;;;9.47;100.00;101192.28;5017914;28;20462;-73
2021/11/07 07:31:32;;;;;;;16.42;10.98;;;;;;;9.48;100.00;101204.38;5019657;28;20132;-72
2021/11/07 07:34:02;;;;;;;23.67;10.88;;;;;;;9.50;100.00;101210.44;5018829;28;20065;-73
2021/11/07 07:36:29;;;;;;;18.25;11.05;;;;;;;9.57;100.00;101206.91;5024182;28;20521;-72
2021/11/07 07:38:57;;;;;;;18.58;10.63;;;;;;;9.59;100.00;101204.31;5026402;28;20074;-73
2021/11/07 07:41:23;;;;;;;17.63;11.15;;;;;;;9.58;100.00;101197.41;5031264;28;20159;-73
2021/11/07 07:43:51;;;;;;;19.33;11.20;;;;;;;9.65;100.00;101209.47;5019971;28;20095;-73
2021/11/07 07:46:18;;;;;;;17.63;11.20;;;;;;;9.64;100.00;101210.34;5016587;28;20053;-73
2021/11/07 07:48:46;;;;;;;21.70;11.90;;;;;;;9.64;100.00;101205.16;5008832;28;20049;-73
2021/11/07 07:51:15;;;;;;;17.45;10.70;;;;;;;9.77;100.00;101208.50;5011024;28;20062;-72
2021/11/07 07:53:42;;;;;;;21.60;11.88;;;;;;;9.76;100.00;101198.97;5018633;28;20041;-74
2021/11/07 07:56:10;;;;;;;23.60;12.40;;;;;;;9.73;100.00;101204.22;5021892;28;20060;-73
2021/11/07 07:58:37;;;;;;;22.95;11.43;;;;;;;9.75;100.00;101205.03;5015780;28;20053;-72
2021/11/07 08:01:07;;;;;;;19.70;11.55;;;;;;;9.75;100.00;101205.94;5007672;28;20052;-72
2021/11/07 08:03:33;;;;;;;23.45;11.57;;;;;;;9.77;100.00;101200.69;5016060;28;20060;-73
2021/11/07 08:06:01;;;;;;;19.50;10.45;;;;;;;9.80;100.00;101203.28;5018237;28;20053;-72
2021/11/07 08:08:28;;;;;;;21.42;10.68;;;;;;;9.80;100.00;101208.47;5024631;28;20060;-71
2021/11/07 08:10:54;;;;;;;23.15;10.30;;;;;;;9.88;100.00;101201.47;5016343;28;20057;-73
2021/11/07 08:13:20;;;;;;;22.13;10.98;;;;;;;9.87;100.00;101199.75;5011386;28;20041;-72
2021/11/07 08:15:47;;;;;;;19.08;8.60;;;;;;;9.84;100.00;101204.97;5016593;28;20058;-73
2021/11/07 08:18:15;;;;;;;20.85;8.18;;;;;;;9.84;100.00;101199.78;5012612;28;20549;-73
2021/11/07 08:20:44;;;;;;;21.40;7.78;;;;;;;9.84;100.00;101199.78;5008177;28;20515;-73
2021/11/07 08:23:11;;;;;;;19.77;7.88;;;;;;;9.89;100.00;101204.94;5009401;28;20046;-73
2021/11/07 08:25:37;;;;;;;20.88;8.25;;;;;;;9.87;100.00;101212.75;5002112;28;20495;-72
2021/11/07 08:28:05;;;;;;;20.70;6.78;;;;;;;9.81;100.00;101218.00;5012445;28;20049;-74
2021/11/07 08:30:35;;;;;;;19.73;6.10;;;;;;;9.84;100.00;101220.56;5017976;28;20053;-74
2021/11/07 08:33:01;;;;;;;21.02;6.75;;;;;;;9.80;100.00;101218.88;5017356;28;20543;-74
2021/11/07 08:35:30;;;;;;;21.70;7.10;;;;;;;9.76;100.00;101223.25;5020707;28;20073;-74
2021/11/07 08:37:59;;;;;;;24.70;7.72;;;;;;;9.80;100.00;101224.06;5019294;28;20066;-73
2021/11/07 08:40:30;;;;;;;21.95;7.05;;;;;;;9.77;100.00;101224.97;5020706;28;20081;-72
2021/11/07 08:43:02;;;;;;;25.88;7.65;;;;;;;9.87;100.00;101236.13;5021647;28;20069;-71
2021/11/07 09:04:57;;;;;;;21.75;6.55;;;;;;;10.50;96.29;101239.91;4978620;28;20056;-73
2021/11/07 09:07:36;;;;;;;20.88;4.75;;;;;;;10.55;95.96;101245.06;5009524;28;20056;-72
2021/11/07 09:10:06;;;;;;;24.55;5.10;;;;;;;10.64;93.03;101249.28;5002131;28;20073;-73
2021/11/07 09:12:33;;;;;;;23.90;4.97;;;;;;;10.67;91.37;101236.25;5016405;28;20056;-73
2021/11/07 09:14:59;;;;;;;14.63;3.83;;;;;;;10.55;92.56;101234.66;5013861;28;20057;-73
2021/11/07 09:17:27;;;;;;;20.98;5.28;;;;;;;10.64;91.76;101244.94;5019229;28;20057;-73
2021/11/07 09:19:55;;;;;;;19.42;4.20;;;;;;;10.71;91.36;101241.41;5017705;28;20053;-73
2021/11/07 09:22:29;;;;;;;20.70;4.85;;;;;;;10.66;90.28;101238.00;5018430;28;20058;-73
2021/11/07 09:24:59;;;;;;;23.38;3.88;;;;;;;10.66;88.46;101240.59;5021612;28;20052;-72
2021/11/07 09:27:29;;;;;;;22.90;4.50;;;;;;;10.59;88.48;101257.13;5022598;28;20116;-73
2021/11/07 09:30:03;;;;;;;17.45;4.32;;;;;;;10.65;87.72;101257.09;5030529;28;20057;-73
2021/11/07 09:32:46;;;;;;;22.77;3.55;;;;;;;10.63;86.25;101256.25;4995846;28;20149;-73
2021/11/07 09:35:30;;;;;;;21.63;3.95;;;;;;;10.64;86.98;101257.97;5016022;28;20057;-73
2021/11/07 09:38:00;;;;;;;21.83;3.40;;;;;;;10.76;85.72;101246.53;5015232;28;20045;-73
2021/11/07 09:40:31;;;;;;;19.80;4.03;;;;;;;10.78;86.95;101259.56;5014407;28;20419;-73
2021/11/07 09:43:23;;;;;;;14.85;2.92;;;;;;;10.93;83.86;101250.69;5009069;28;20049;-73
2021/11/07 09:45:58;;;;;;;16.13;2.92;;;;;;;11.03;83.91;101257.47;5021913;28;20045;-73
2021/11/07 09:48:27;;;;;;;;;;;;;;;11.11;81.76;101260.00;5018284;28;20152;-73
2021/11/07 09:50:54;;;;;;;15.32;3.28;;;;;;;11.03;82.35;101267.91;5019174;28;19929;-73
2021/11/07 09:53:21;;;;;;;21.15;2.60;;;;;;;11.02;81.81;101259.25;5021669;28;20491;-73
2021/11/07 09:55:49;;;;;;;25.13;3.70;;;;;;;10.98;80.61;101264.50;5012116;28;20056;-73
2021/11/07 09:58:17;;;;;;;18.20;2.92;;;;;;;11.02;81.85;101256.63;5010009;28;20107;-72
2021/11/07 10:00:48;;;;;;;27.80;4.35;;;;;;;11.07;82.54;101253.97;5014817;28;20065;-71
2021/11/07 10:03:17;;;;;;;24.58;3.33;;;;;;;11.07;81.96;101253.97;5013622;28;20056;-72
2021/11/07 10:05:47;;;;;;;28.70;5.40;;;;;;;11.02;82.49;101258.41;5014705;28;20046;-72
2021/11/07 10:08:15;;;;;;;18.80;3.60;;;;;;;10.94;83.21;101248.06;5012859;28;20061;-74
2021/11/07 10:10:47;;;;;;;25.50;4.60;;;;;;;10.99;81.78;101258.41;5012453;28;20092;-70
2021/11/07 10:13:22;;;;;;;19.40;3.00;;;;;;;10.98;81.98;101259.31;5010924;28;20073;-72
2021/11/07 10:15:50;;;;;;;21.30;3.72;;;;;;;10.93;81.24;101245.50;5003986;28;22711;-73
2021/11/07 10:18:28;;;;;;;23.00;4.35;;;;;;;10.97;81.17;101242.84;5015711;28;20050;-69
2021/11/07 10:20:57;;;;;;;21.48;2.97;;;;;;;10.93;79.67;101245.50;5010455;28;20132;-72
2021/11/07 10:23:28;;;;;;;23.50;4.70;;;;;;;10.79;80.89;101251.72;5015362;28;20144;-72
2021/11/07 10:26:01;;;;;;;12.82;2.80;;;;;;;10.74;80.19;101243.09;5018589;28;20150;-74
2021/11/07 10:28:35;;;;;;;16.83;3.28;;;;;;;10.67;81.65;101259.66;5021975;28;20057;-73
2021/11/07 10:31:08;;;;;;;19.45;3.63;;;;;;;10.58;82.23;101261.50;5013694;28;20041;-72
2021/11/07 10:33:55;;;;;;;20.92;4.03;;;;;;;10.53;81.65;101263.25;5019478;28;20446;-72
2021/11/07 10:53:12;;;;;;;20.60;3.15;;;;;;;10.64;80.92;101249.28;5019655;28;20047;-74
2021/11/07 10:55:42;;;;;;;20.73;4.43;;;;;;;10.60;81.38;101250.22;5020023;28;20049;-72
2021/11/07 10:58:09;;;;;;;18.05;3.17;;;;;;;10.72;80.95;101257.88;5023394;28;20049;-72
2021/11/07 11:00:39;;;;;;;20.73;2.75;;;;;;;10.71;80.95;101249.19;5015810;28;20053;-73
2021/11/07 11:03:08;;;;;;;17.05;3.22;;;;;;;10.83;79.76;101248.19;5020023;28;20046;-72
2021/11/07 11:05:39;;;;;;;19.02;3.30;;;;;;;10.93;79.12;101248.09;5016753;28;20042;-73
2021/11/07 11:08:11;;;;;;;26.02;4.18;;;;;;;10.93;79.64;101243.75;5021450;28;20057;-73
2021/11/07 11:10:56;;;;;;;16.25;2.72;;;;;;;10.99;79.87;101245.41;5014195;28;20080;-74
2021/11/07 11:13:27;;;;;;;;;;;;;;;11.00;79.76;101236.72;5020896;28;20086;-73
2021/11/07 11:19:16;;;;;;;22.30;3.10;;;;;;;11.09;78.95;101251.34;5114750;27;20412;-73
2021/11/07 11:22:12;;;;;;;21.85;3.85;;;;;;;11.11;78.24;101246.97;5111058;28;20092;-74
2021/11/07 11:24:59;;;;;;;19.27;3.13;;;;;;;11.24;78.03;101237.25;5110436;28;20109;-74
2021/11/07 11:27:44;;;;;;;16.13;3.30;;;;;;;11.25;78.46;101232.03;5108758;27;20070;-73
2021/11/07 11:32:58;;;;;;;20.60;3.72;;;;;;;11.15;78.57;101227.84;5110522;27;20398;-73
2021/11/07 11:35:29;;;;;;;19.45;3.88;;;;;;;11.24;78.90;101216.41;5108168;28;20078;-74
2021/11/07 11:38:02;;;;;;;20.83;3.03;;;;;;;11.23;76.42;101227.75;5105819;28;20067;-74
2021/11/07 11:40:36;;;;;;;21.13;3.42;;;;;;;11.09;77.01;101236.59;5107662;28;20115;-73
2021/11/07 11:43:08;;;;;;;15.13;3.57;;;;;;;11.06;75.38;101236.63;5105010;28;20115;-74
2021/11/07 11:45:38;;;;;;;19.27;3.35;;;;;;;10.99;75.17;101230.63;5103979;28;20072;-75
2021/11/07 11:48:19;;;;;;;21.58;3.03;;;;;;;10.96;75.30;101229.81;5106911;28;20061;-74
2021/11/07 11:51:15;;;;;;;15.70;2.28;;;;;;;10.82;77.51;101220.47;5111545;28;20105;-73
2021/11/07 11:54:08;;;;;;;22.70;3.45;;;;;;;10.78;77.24;101223.13;5104828;28;20051;-75
2021/11/07 11:56:38;;;;;;;15.57;3.08;;;;;;;10.65;78.46;101219.78;5106735;27;20496;-73
2021/11/07 11:59:25;;;;;;;16.45;3.30;;;;;;;10.68;79.45;101230.16;5103961;28;20059;-74
2021/11/07 12:02:14;;;;;;;22.50;2.88;;;;;;;10.67;79.07;101231.03;5100397;28;20465;-72
2021/11/07 12:05:09;;;;;;;26.67;4.50;;;;;;;10.71;80.38;101214.53;5101473;28;20592;-74
2021/11/07 12:07:45;;;;;;;20.45;3.45;;;;;;;10.67;80.17;101212.81;5106998;28;20440;-75
2021/11/07 12:10:28;;;;;;;19.67;3.08;;;;;;;10.72;80.39;101213.66;5103633;28;20043;-74
2021/11/07 12:13:00;;;;;;;17.67;3.22;;;;;;;10.85;80.32;101209.16;5107389;28;20059;-74
2021/11/07 12:15:37;;;;;;;18.52;3.85;;;;;;;10.96;80.33;101214.19;5107252;28;20051;-74
2021/11/07 12:18:08;;;;;;;21.05;4.32;;;;;;;11.11;78.97;101194.91;5106148;28;20043;-74
2021/11/07 12:20:39;;;;;;;20.70;4.32;;;;;;;11.20;80.17;101202.59;5099364;28;20055;-78
2021/11/07 12:23:21;;;;;;;20.23;3.70;;;;;;;11.13;77.86;101199.22;5109510;28;20085;-78
2021/11/07 12:25:48;;;;;;;21.95;3.97;;;;;;;11.16;76.75;101212.19;5106023;27;20040;-77